sensor_id;sensor_type;location;lat;lon;timestamp;temperature;humidity
8557;DHT22;4316;53.840;10.762;2022-09-09T00:03:40;15.60;99.90
8557;DHT22;4316;53.840;10.762;2022-09-09T00:09:07;15.60;99.90
8557;DHT22;4316;53.840;10.762;2022-09-09T00:14:35;15.70;99.90
8557;DHT22;4316;53.840;10.762;2022-09-09T00:17:09;15.60;99.90
8557;DHT22;4316;53.840;10.762;2022-09-09T00:19:45;15.60;99.90
8557;DHT22;4316;53.840;10.762;2022-09-09T00:22:25;15.60;99.90
8557;DHT22;4316;53.840;10.762;2022-09-09T00:25:08;15.60;99.90
8557;DHT22;4316;53.840;10.762;2022-09-09T00:30:17;15.60;99.90
8557;DHT22;4316;53.840;10.762;2022-09-09T00:32:46;15.60;99.90
8557;DHT22;4316;53.840;10.762;2022-09-09T00:35:17;15.60;99.90
8557;DHT22;4316;53.840;10.762;2022-09-09T00:37:48;15.70;99.90
8557;DHT22;4316;53.840;10.762;2022-09-09T00:40:24;15.60;99.90
8557;DHT22;4316;53.840;10.762;2022-09-09T00:51:58;15.70;99.90
8557;DHT22;4316;53.840;10.762;2022-09-09T00:57:32;15.70;99.90
8557;DHT22;4316;53.840;10.762;2022-09-09T01:00:35;15.80;99.90
8557;DHT22;4316;53.840;10.762;2022-09-09T01:05:37;15.80;99.90
8557;DHT22;4316;53.840;10.762;2022-09-09T01:08:17;15.80;99.90
8557;DHT22;4316;53.840;10.762;2022-09-09T01:10:50;15.80;99.90
8557;DHT22;4316;53.840;10.762;2022-09-09T01:13:28;15.80;99.90
8557;DHT22;4316;53.840;10.762;2022-09-09T01:15:58;15.80;99.90
8557;DHT22;4316;53.840;10.762;2022-09-09T01:18:35;15.80;99.90
8557;DHT22;4316;53.840;10.762;2022-09-09T01:26:44;15.70;99.90
8557;DHT22;4316;53.840;10.762;2022-09-09T01:29:21;15.50;99.90
8557;DHT22;4316;53.840;10.762;2022-09-09T01:31:57;15.60;99.90
8557;DHT22;4316;53.840;10.762;2022-09-09T01:34:36;15.50;99.90
8557;DHT22;4316;53.840;10.762;2022-09-09T01:37:06;15.50;99.90
8557;DHT22;4316;53.840;10.762;2022-09-09T01:39:35;15.40;99.90
8557;DHT22;4316;53.840;10.762;2022-09-09T01:42:05;15.50;99.90
8557;DHT22;4316;53.840;10.762;2022-09-09T01:44:33;15.50;99.90
8557;DHT22;4316;53.840;10.762;2022-09-09T01:47:00;15.50;99.90
8557;DHT22;4316;53.840;10.762;2022-09-09T01:49:26;15.50;99.90
8557;DHT22;4316;53.840;10.762;2022-09-09T01:51:55;15.50;99.90
8557;DHT22;4316;53.840;10.762;2022-09-09T01:54:34;15.50;99.90
8557;DHT22;4316;53.840;10.762;2022-09-09T01:57:15;15.60;99.90
8557;DHT22;4316;53.840;10.762;2022-09-09T02:02:39;15.70;99.90
8557;DHT22;4316;53.840;10.762;2022-09-09T02:05:35;15.60;99.90
8557;DHT22;4316;53.840;10.762;2022-09-09T02:08:15;15.60;99.90
8557;DHT22;4316;53.840;10.762;2022-09-09T02:11:09;15.60;99.90
8557;DHT22;4316;53.840;10.762;2022-09-09T02:13:51;15.70;99.90
8557;DHT22;4316;53.840;10.762;2022-09-09T02:19:22;15.60;99.90
8557;DHT22;4316;53.840;10.762;2022-09-09T02:22:17;15.60;99.90
8557;DHT22;4316;53.840;10.762;2022-09-09T02:24:45;15.70;99.90
8557;DHT22;4316;53.840;10.762;2022-09-09T02:27:16;15.70;99.90
8557;DHT22;4316;53.840;10.762;2022-09-09T02:29:44;15.70;99.90
8557;DHT22;4316;53.840;10.762;2022-09-09T02:32:16;15.80;99.90
8557;DHT22;4316;53.840;10.762;2022-09-09T02:34:50;15.80;99.90
8557;DHT22;4316;53.840;10.762;2022-09-09T02:37:19;15.80;99.90
8557;DHT22;4316;53.840;10.762;2022-09-09T02:39:49;15.80;99.90
8557;DHT22;4316;53.840;10.762;2022-09-09T02:42:18;15.80;99.90
8557;DHT22;4316;53.840;10.762;2022-09-09T02:44:45;15.80;99.90
8557;DHT22;4316;53.840;10.762;2022-09-09T02:49:53;15.70;99.90
8557;DHT22;4316;53.840;10.762;2022-09-09T02:52:32;15.70;99.90
8557;DHT22;4316;53.840;10.762;2022-09-09T02:55:16;15.50;99.90
8557;DHT22;4316;53.840;10.762;2022-09-09T02:57:46;15.50;99.90
8557;DHT22;4316;53.840;10.762;2022-09-09T03:00:14;15.50;99.90
8557;DHT22;4316;53.840;10.762;2022-09-09T03:02:40;15.60;99.90
8557;DHT22;4316;53.840;10.762;2022-09-09T03:05:07;15.60;99.90
8557;DHT22;4316;53.840;10.762;2022-09-09T03:07:33;15.50;99.90
8557;DHT22;4316;53.840;10.762;2022-09-09T03:09:59;15.40;99.90
8557;DHT22;4316;53.840;10.762;2022-09-09T03:12:27;15.40;99.90
8557;DHT22;4316;53.840;10.762;2022-09-09T03:14:52;15.50;99.90
8557;DHT22;4316;53.840;10.762;2022-09-09T03:17:18;15.50;99.90
8557;DHT22;4316;53.840;10.762;2022-09-09T03:19:51;15.50;99.90
8557;DHT22;4316;53.840;10.762;2022-09-09T03:22:20;15.50;99.90
8557;DHT22;4316;53.840;10.762;2022-09-09T03:24:46;15.50;99.90
8557;DHT22;4316;53.840;10.762;2022-09-09T03:27:12;15.60;99.90
8557;DHT22;4316;53.840;10.762;2022-09-09T03:29:39;15.70;99.90
8557;DHT22;4316;53.840;10.762;2022-09-09T03:32:08;15.60;99.90
8557;DHT22;4316;53.840;10.762;2022-09-09T03:34:36;15.70;99.90
8557;DHT22;4316;53.840;10.762;2022-09-09T03:37:05;15.70;99.90
8557;DHT22;4316;53.840;10.762;2022-09-09T03:39:31;15.60;99.90
8557;DHT22;4316;53.840;10.762;2022-09-09T03:41:58;15.60;99.90
8557;DHT22;4316;53.840;10.762;2022-09-09T03:44:23;15.70;99.90
8557;DHT22;4316;53.840;10.762;2022-09-09T03:46:49;15.70;99.90
8557;DHT22;4316;53.840;10.762;2022-09-09T03:49:14;15.70;99.90
8557;DHT22;4316;53.840;10.762;2022-09-09T03:51:41;15.70;99.90
8557;DHT22;4316;53.840;10.762;2022-09-09T03:54:07;15.70;99.90
8557;DHT22;4316;53.840;10.762;2022-09-09T03:56:36;15.70;99.90
8557;DHT22;4316;53.840;10.762;2022-09-09T03:59:03;15.70;99.90
8557;DHT22;4316;53.840;10.762;2022-09-09T04:01:29;15.60;99.90
8557;DHT22;4316;53.840;10.762;2022-09-09T04:03:54;15.60;99.90
8557;DHT22;4316;53.840;10.762;2022-09-09T04:06:24;15.60;99.90
8557;DHT22;4316;53.840;10.762;2022-09-09T04:08:50;15.60;99.90
8557;DHT22;4316;53.840;10.762;2022-09-09T04:11:18;15.60;99.90
8557;DHT22;4316;53.840;10.762;2022-09-09T04:13:45;15.50;99.90
8557;DHT22;4316;53.840;10.762;2022-09-09T04:16:12;15.50;99.90
8557;DHT22;4316;53.840;10.762;2022-09-09T04:18:42;15.50;99.90
8557;DHT22;4316;53.840;10.762;2022-09-09T04:21:09;15.60;99.90
8557;DHT22;4316;53.840;10.762;2022-09-09T04:23:35;15.60;99.90
8557;DHT22;4316;53.840;10.762;2022-09-09T04:26:02;15.60;99.90
8557;DHT22;4316;53.840;10.762;2022-09-09T04:28:30;15.50;99.90
8557;DHT22;4316;53.840;10.762;2022-09-09T04:31:03;15.40;99.90
8557;DHT22;4316;53.840;10.762;2022-09-09T04:33:29;15.40;99.90
8557;DHT22;4316;53.840;10.762;2022-09-09T04:35:56;15.30;99.90
8557;DHT22;4316;53.840;10.762;2022-09-09T04:38:24;15.30;99.90
8557;DHT22;4316;53.840;10.762;2022-09-09T04:40:51;15.30;99.90
8557;DHT22;4316;53.840;10.762;2022-09-09T04:43:20;15.20;99.90
8557;DHT22;4316;53.840;10.762;2022-09-09T04:45:48;15.20;99.90
8557;DHT22;4316;53.840;10.762;2022-09-09T04:48:14;15.20;99.90
8557;DHT22;4316;53.840;10.762;2022-09-09T04:50:40;15.30;99.90
8557;DHT22;4316;53.840;10.762;2022-09-09T04:53:06;15.40;99.90
8557;DHT22;4316;53.840;10.762;2022-09-09T04:55:34;15.40;99.90
8557;DHT22;4316;53.840;10.762;2022-09-09T04:58:08;15.30;99.90
8557;DHT22;4316;53.840;10.762;2022-09-09T05:00:37;15.30;99.90
8557;DHT22;4316;53.840;10.762;2022-09-09T05:03:06;15.30;99.90
8557;DHT22;4316;53.840;10.762;2022-09-09T05:05:33;15.40;99.90
8557;DHT22;4316;53.840;10.762;2022-09-09T05:08:07;15.30;99.90
8557;DHT22;4316;53.840;10.762;2022-09-09T05:10:35;15.30;99.90
8557;DHT22;4316;53.840;10.762;2022-09-09T05:13:01;15.30;99.90
8557;DHT22;4316;53.840;10.762;2022-09-09T05:15:29;15.30;99.90
8557;DHT22;4316;53.840;10.762;2022-09-09T05:17:59;15.30;99.90
8557;DHT22;4316;53.840;10.762;2022-09-09T05:20:27;15.30;99.90
8557;DHT22;4316;53.840;10.762;2022-09-09T05:22:54;15.30;99.90
8557;DHT22;4316;53.840;10.762;2022-09-09T05:25:22;15.30;99.90
8557;DHT22;4316;53.840;10.762;2022-09-09T05:27:48;15.30;99.90
8557;DHT22;4316;53.840;10.762;2022-09-09T05:30:15;15.30;99.90
8557;DHT22;4316;53.840;10.762;2022-09-09T05:32:40;15.30;99.90
8557;DHT22;4316;53.840;10.762;2022-09-09T05:35:06;15.30;99.90
8557;DHT22;4316;53.840;10.762;2022-09-09T05:37:32;15.30;99.90
8557;DHT22;4316;53.840;10.762;2022-09-09T05:39:58;15.30;99.90
8557;DHT22;4316;53.840;10.762;2022-09-09T05:42:24;15.40;99.90
8557;DHT22;4316;53.840;10.762;2022-09-09T05:44:49;15.40;99.90
8557;DHT22;4316;53.840;10.762;2022-09-09T05:47:16;15.30;99.90
8557;DHT22;4316;53.840;10.762;2022-09-09T05:49:43;15.20;99.90
8557;DHT22;4316;53.840;10.762;2022-09-09T05:52:09;15.30;99.90
8557;DHT22;4316;53.840;10.762;2022-09-09T05:54:35;15.30;99.90
8557;DHT22;4316;53.840;10.762;2022-09-09T05:57:03;15.30;99.90
8557;DHT22;4316;53.840;10.762;2022-09-09T05:59:29;15.30;99.90
8557;DHT22;4316;53.840;10.762;2022-09-09T06:01:56;15.20;99.90
8557;DHT22;4316;53.840;10.762;2022-09-09T06:04:34;15.20;99.90
8557;DHT22;4316;53.840;10.762;2022-09-09T06:07:01;15.30;99.90
8557;DHT22;4316;53.840;10.762;2022-09-09T06:09:27;15.40;99.90
8557;DHT22;4316;53.840;10.762;2022-09-09T06:11:52;15.40;99.90
8557;DHT22;4316;53.840;10.762;2022-09-09T06:14:21;15.50;99.90
8557;DHT22;4316;53.840;10.762;2022-09-09T06:16:48;15.40;99.90
8557;DHT22;4316;53.840;10.762;2022-09-09T06:19:20;15.40;99.90
8557;DHT22;4316;53.840;10.762;2022-09-09T06:21:46;15.40;99.90
8557;DHT22;4316;53.840;10.762;2022-09-09T06:24:13;15.40;99.90
8557;DHT22;4316;53.840;10.762;2022-09-09T06:26:43;15.50;99.90
8557;DHT22;4316;53.840;10.762;2022-09-09T06:29:12;15.50;99.90
8557;DHT22;4316;53.840;10.762;2022-09-09T06:31:38;15.60;99.90
8557;DHT22;4316;53.840;10.762;2022-09-09T06:34:15;15.50;99.90
8557;DHT22;4316;53.840;10.762;2022-09-09T06:36:45;15.50;99.90
8557;DHT22;4316;53.840;10.762;2022-09-09T06:39:11;15.60;99.90
8557;DHT22;4316;53.840;10.762;2022-09-09T06:41:38;15.60;99.90
8557;DHT22;4316;53.840;10.762;2022-09-09T06:44:07;15.70;99.90
8557;DHT22;4316;53.840;10.762;2022-09-09T06:46:39;15.80;99.90
8557;DHT22;4316;53.840;10.762;2022-09-09T06:49:08;15.80;99.90
8557;DHT22;4316;53.840;10.762;2022-09-09T06:51:36;15.90;99.90
8557;DHT22;4316;53.840;10.762;2022-09-09T06:54:03;15.90;99.90
8557;DHT22;4316;53.840;10.762;2022-09-09T06:56:35;15.90;99.90
8557;DHT22;4316;53.840;10.762;2022-09-09T06:59:07;15.90;99.90
8557;DHT22;4316;53.840;10.762;2022-09-09T07:01:37;15.90;99.90
8557;DHT22;4316;53.840;10.762;2022-09-09T07:04:07;16.00;99.90
8557;DHT22;4316;53.840;10.762;2022-09-09T07:06:37;16.00;99.90
8557;DHT22;4316;53.840;10.762;2022-09-09T07:09:09;16.20;99.90
8557;DHT22;4316;53.840;10.762;2022-09-09T07:11:40;15.90;99.90
8557;DHT22;4316;53.840;10.762;2022-09-09T07:14:10;16.00;99.90
8557;DHT22;4316;53.840;10.762;2022-09-09T07:16:41;16.00;99.90
8557;DHT22;4316;53.840;10.762;2022-09-09T07:19:08;16.10;99.90
8557;DHT22;4316;53.840;10.762;2022-09-09T07:21:34;16.30;99.90
8557;DHT22;4316;53.840;10.762;2022-09-09T07:24:00;16.40;99.90
8557;DHT22;4316;53.840;10.762;2022-09-09T07:26:29;16.50;99.90
8557;DHT22;4316;53.840;10.762;2022-09-09T07:28:57;16.50;99.90
8557;DHT22;4316;53.840;10.762;2022-09-09T07:31:25;16.40;99.90
8557;DHT22;4316;53.840;10.762;2022-09-09T07:33:52;16.50;99.90
8557;DHT22;4316;53.840;10.762;2022-09-09T07:36:24;16.60;99.90
8557;DHT22;4316;53.840;10.762;2022-09-09T07:38:54;16.70;99.90
8557;DHT22;4316;53.840;10.762;2022-09-09T07:41:35;16.90;99.90
8557;DHT22;4316;53.840;10.762;2022-09-09T07:44:09;17.30;99.90
8557;DHT22;4316;53.840;10.762;2022-09-09T07:46:37;17.50;99.90
8557;DHT22;4316;53.840;10.762;2022-09-09T07:49:06;17.70;99.90
8557;DHT22;4316;53.840;10.762;2022-09-09T07:51:36;17.60;99.90
8557;DHT22;4316;53.840;10.762;2022-09-09T07:54:04;17.70;99.90
8557;DHT22;4316;53.840;10.762;2022-09-09T07:56:32;17.80;99.90
8557;DHT22;4316;53.840;10.762;2022-09-09T07:58:59;18.00;99.90
8557;DHT22;4316;53.840;10.762;2022-09-09T08:01:29;18.20;99.90
8557;DHT22;4316;53.840;10.762;2022-09-09T08:04:01;18.30;99.90
8557;DHT22;4316;53.840;10.762;2022-09-09T08:06:36;18.50;99.90
8557;DHT22;4316;53.840;10.762;2022-09-09T08:09:04;18.80;99.90
8557;DHT22;4316;53.840;10.762;2022-09-09T08:11:31;18.70;99.90
8557;DHT22;4316;53.840;10.762;2022-09-09T08:13:58;18.70;99.90
8557;DHT22;4316;53.840;10.762;2022-09-09T08:16:30;18.70;99.90
8557;DHT22;4316;53.840;10.762;2022-09-09T08:18:58;19.00;99.90
8557;DHT22;4316;53.840;10.762;2022-09-09T08:21:26;19.10;99.90
8557;DHT22;4316;53.840;10.762;2022-09-09T08:23:55;19.00;99.90
8557;DHT22;4316;53.840;10.762;2022-09-09T08:26:23;18.60;99.90
8557;DHT22;4316;53.840;10.762;2022-09-09T08:28:50;18.80;99.90
8557;DHT22;4316;53.840;10.762;2022-09-09T08:31:20;18.90;99.90
8557;DHT22;4316;53.840;10.762;2022-09-09T08:33:47;19.20;99.90
8557;DHT22;4316;53.840;10.762;2022-09-09T08:36:16;19.20;99.90
8557;DHT22;4316;53.840;10.762;2022-09-09T08:38:42;18.80;99.90
8557;DHT22;4316;53.840;10.762;2022-09-09T08:43:46;18.30;99.90
8557;DHT22;4316;53.840;10.762;2022-09-09T08:46:24;18.60;99.90
8557;DHT22;4316;53.840;10.762;2022-09-09T08:49:19;18.80;99.90
8557;DHT22;4316;53.840;10.762;2022-09-09T08:51:48;18.90;99.90
8557;DHT22;4316;53.840;10.762;2022-09-09T08:54:15;19.00;99.90
8557;DHT22;4316;53.840;10.762;2022-09-09T08:56:42;18.90;99.90
8557;DHT22;4316;53.840;10.762;2022-09-09T08:59:12;18.70;99.90
8557;DHT22;4316;53.840;10.762;2022-09-09T09:01:57;18.80;99.90
8557;DHT22;4316;53.840;10.762;2022-09-09T09:04:50;19.00;99.90
8557;DHT22;4316;53.840;10.762;2022-09-09T09:13:20;19.40;99.90
8557;DHT22;4316;53.840;10.762;2022-09-09T09:16:00;19.50;99.90
8557;DHT22;4316;53.840;10.762;2022-09-09T09:18:26;19.70;99.90
8557;DHT22;4316;53.840;10.762;2022-09-09T09:21:13;19.90;99.90
8557;DHT22;4316;53.840;10.762;2022-09-09T09:23:58;20.00;99.90
8557;DHT22;4316;53.840;10.762;2022-09-09T09:26:34;20.20;99.90
8557;DHT22;4316;53.840;10.762;2022-09-09T09:29:16;20.50;99.90
8557;DHT22;4316;53.840;10.762;2022-09-09T09:31:50;20.60;99.90
8557;DHT22;4316;53.840;10.762;2022-09-09T09:34:17;20.80;99.90
8557;DHT22;4316;53.840;10.762;2022-09-09T09:36:52;21.00;99.90
8557;DHT22;4316;53.840;10.762;2022-09-09T09:39:36;20.30;99.90
8557;DHT22;4316;53.840;10.762;2022-09-09T09:42:12;20.30;99.90
8557;DHT22;4316;53.840;10.762;2022-09-09T09:44:43;20.20;99.90
8557;DHT22;4316;53.840;10.762;2022-09-09T09:47:21;20.20;99.90
8557;DHT22;4316;53.840;10.762;2022-09-09T09:50:17;20.10;99.90
8557;DHT22;4316;53.840;10.762;2022-09-09T09:52:56;19.90;99.90
8557;DHT22;4316;53.840;10.762;2022-09-09T09:55:24;19.80;99.90
8557;DHT22;4316;53.840;10.762;2022-09-09T09:57:50;19.80;99.90
8557;DHT22;4316;53.840;10.762;2022-09-09T10:00:19;20.10;99.90
8557;DHT22;4316;53.840;10.762;2022-09-09T10:02:53;20.10;99.90
8557;DHT22;4316;53.840;10.762;2022-09-09T10:05:28;20.10;99.90
8557;DHT22;4316;53.840;10.762;2022-09-09T10:10:40;19.80;99.90
8557;DHT22;4316;53.840;10.762;2022-09-09T10:16:21;19.70;99.90
8557;DHT22;4316;53.840;10.762;2022-09-09T10:19:15;19.80;99.90
8557;DHT22;4316;53.840;10.762;2022-09-09T10:21:54;19.80;99.90
8557;DHT22;4316;53.840;10.762;2022-09-09T10:27:11;19.70;99.90
8557;DHT22;4316;53.840;10.762;2022-09-09T10:30:34;19.70;99.90
8557;DHT22;4316;53.840;10.762;2022-09-09T10:41:18;19.90;99.90
8557;DHT22;4316;53.840;10.762;2022-09-09T10:44:01;20.10;99.90
8557;DHT22;4316;53.840;10.762;2022-09-09T10:46:57;20.70;99.90
8557;DHT22;4316;53.840;10.762;2022-09-09T10:55:20;22.10;99.90
8557;DHT22;4316;53.840;10.762;2022-09-09T10:57:50;22.60;99.90
8557;DHT22;4316;53.840;10.762;2022-09-09T11:00:24;22.90;99.90
8557;DHT22;4316;53.840;10.762;2022-09-09T11:03:02;23.00;99.90
8557;DHT22;4316;53.840;10.762;2022-09-09T11:05:51;23.10;99.90
8557;DHT22;4316;53.840;10.762;2022-09-09T11:08:26;23.20;99.90
8557;DHT22;4316;53.840;10.762;2022-09-09T11:11:06;23.30;99.90
8557;DHT22;4316;53.840;10.762;2022-09-09T11:13:42;23.10;99.90
8557;DHT22;4316;53.840;10.762;2022-09-09T11:16:19;23.10;99.90
8557;DHT22;4316;53.840;10.762;2022-09-09T11:18:47;22.90;99.90
8557;DHT22;4316;53.840;10.762;2022-09-09T11:21:26;22.90;99.90
8557;DHT22;4316;53.840;10.762;2022-09-09T11:23:59;23.20;99.90
8557;DHT22;4316;53.840;10.762;2022-09-09T11:29:38;23.50;99.90
8557;DHT22;4316;53.840;10.762;2022-09-09T11:40:41;22.40;99.90
8557;DHT22;4316;53.840;10.762;2022-09-09T11:43:24;22.70;99.90
8557;DHT22;4316;53.840;10.762;2022-09-09T11:45:57;22.70;99.90
8557;DHT22;4316;53.840;10.762;2022-09-09T11:51:10;23.00;99.90
8557;DHT22;4316;53.840;10.762;2022-09-09T11:53:59;22.90;99.90
8557;DHT22;4316;53.840;10.762;2022-09-09T11:56:45;23.10;99.90
8557;DHT22;4316;53.840;10.762;2022-09-09T12:02:18;23.20;99.90
8557;DHT22;4316;53.840;10.762;2022-09-09T12:04:58;23.40;99.90
8557;DHT22;4316;53.840;10.762;2022-09-09T12:07:28;23.30;99.90
8557;DHT22;4316;53.840;10.762;2022-09-09T12:09:58;22.70;99.90
8557;DHT22;4316;53.840;10.762;2022-09-09T12:12:37;22.80;99.90
8557;DHT22;4316;53.840;10.762;2022-09-09T12:17:58;23.10;99.90
8557;DHT22;4316;53.840;10.762;2022-09-09T12:23:08;23.60;99.90
8557;DHT22;4316;53.840;10.762;2022-09-09T12:28:54;24.00;99.90
8557;DHT22;4316;53.840;10.762;2022-09-09T12:36:38;24.00;99.90
8557;DHT22;4316;53.840;10.762;2022-09-09T12:39:31;24.00;99.90
8557;DHT22;4316;53.840;10.762;2022-09-09T12:41:59;24.20;99.90
8557;DHT22;4316;53.840;10.762;2022-09-09T12:44:25;24.30;99.90
8557;DHT22;4316;53.840;10.762;2022-09-09T12:46:55;24.50;99.90
8557;DHT22;4316;53.840;10.762;2022-09-09T12:49:37;24.50;99.90
8557;DHT22;4316;53.840;10.762;2022-09-09T12:52:07;24.60;99.90
8557;DHT22;4316;53.840;10.762;2022-09-09T12:54:36;24.70;99.90
8557;DHT22;4316;53.840;10.762;2022-09-09T12:57:03;24.70;99.90
8557;DHT22;4316;53.840;10.762;2022-09-09T12:59:37;24.40;99.90
8557;DHT22;4316;53.840;10.762;2022-09-09T13:04:42;24.20;99.90
8557;DHT22;4316;53.840;10.762;2022-09-09T13:07:08;24.10;99.90
8557;DHT22;4316;53.840;10.762;2022-09-09T13:09:36;24.00;99.90
8557;DHT22;4316;53.840;10.762;2022-09-09T13:12:03;24.10;99.90
8557;DHT22;4316;53.840;10.762;2022-09-09T13:14:36;24.30;99.90
8557;DHT22;4316;53.840;10.762;2022-09-09T13:17:06;24.30;99.90
8557;DHT22;4316;53.840;10.762;2022-09-09T13:19:45;24.30;99.90
8557;DHT22;4316;53.840;10.762;2022-09-09T13:22:21;24.30;99.90
8557;DHT22;4316;53.840;10.762;2022-09-09T13:24:46;24.20;99.90
8557;DHT22;4316;53.840;10.762;2022-09-09T13:29:54;23.90;99.90
8557;DHT22;4316;53.840;10.762;2022-09-09T13:32:20;23.70;99.90
8557;DHT22;4316;53.840;10.762;2022-09-09T13:35:22;23.50;99.90
8557;DHT22;4316;53.840;10.762;2022-09-09T13:37:47;23.40;99.90
8557;DHT22;4316;53.840;10.762;2022-09-09T13:40:18;23.10;99.90
8557;DHT22;4316;53.840;10.762;2022-09-09T13:42:44;23.00;99.90
8557;DHT22;4316;53.840;10.762;2022-09-09T13:45:25;23.40;99.90
8557;DHT22;4316;53.840;10.762;2022-09-09T13:47:55;23.40;99.90
8557;DHT22;4316;53.840;10.762;2022-09-09T13:50:30;23.30;99.90
8557;DHT22;4316;53.840;10.762;2022-09-09T13:52:57;23.50;99.90
8557;DHT22;4316;53.840;10.762;2022-09-09T13:55:25;23.50;99.90
8557;DHT22;4316;53.840;10.762;2022-09-09T13:57:55;23.50;99.90
8557;DHT22;4316;53.840;10.762;2022-09-09T14:00:22;23.50;99.90
8557;DHT22;4316;53.840;10.762;2022-09-09T14:02:49;23.30;99.90
8557;DHT22;4316;53.840;10.762;2022-09-09T14:05:15;23.10;99.90
8557;DHT22;4316;53.840;10.762;2022-09-09T14:07:42;23.20;99.90
8557;DHT22;4316;53.840;10.762;2022-09-09T14:10:08;23.00;99.90
8557;DHT22;4316;53.840;10.762;2022-09-09T14:12:34;23.00;99.90
8557;DHT22;4316;53.840;10.762;2022-09-09T14:15:00;22.80;99.90
8557;DHT22;4316;53.840;10.762;2022-09-09T14:17:27;22.70;99.90
8557;DHT22;4316;53.840;10.762;2022-09-09T14:19:55;22.60;99.90
8557;DHT22;4316;53.840;10.762;2022-09-09T14:22:22;22.10;99.90
8557;DHT22;4316;53.840;10.762;2022-09-09T14:24:48;21.90;99.90
8557;DHT22;4316;53.840;10.762;2022-09-09T14:27:14;21.60;99.90
8557;DHT22;4316;53.840;10.762;2022-09-09T14:29:39;21.70;99.90
8557;DHT22;4316;53.840;10.762;2022-09-09T14:32:05;21.70;99.90
8557;DHT22;4316;53.840;10.762;2022-09-09T14:34:31;21.90;99.90
8557;DHT22;4316;53.840;10.762;2022-09-09T14:36:58;21.90;99.90
8557;DHT22;4316;53.840;10.762;2022-09-09T14:39:23;21.90;99.90
8557;DHT22;4316;53.840;10.762;2022-09-09T14:41:49;21.90;99.90
8557;DHT22;4316;53.840;10.762;2022-09-09T14:44:14;21.90;99.90
8557;DHT22;4316;53.840;10.762;2022-09-09T14:46:41;22.10;99.90
8557;DHT22;4316;53.840;10.762;2022-09-09T14:49:08;22.20;99.90
8557;DHT22;4316;53.840;10.762;2022-09-09T14:51:36;22.00;99.90
8557;DHT22;4316;53.840;10.762;2022-09-09T14:54:02;21.70;99.90
8557;DHT22;4316;53.840;10.762;2022-09-09T14:56:30;21.50;99.90
8557;DHT22;4316;53.840;10.762;2022-09-09T14:58:57;21.60;99.90
8557;DHT22;4316;53.840;10.762;2022-09-09T15:01:24;21.40;99.90
8557;DHT22;4316;53.840;10.762;2022-09-09T15:04:03;21.30;99.90
8557;DHT22;4316;53.840;10.762;2022-09-09T15:06:30;21.30;99.90
8557;DHT22;4316;53.840;10.762;2022-09-09T15:08:59;20.80;99.90
8557;DHT22;4316;53.840;10.762;2022-09-09T15:11:27;20.50;99.90
8557;DHT22;4316;53.840;10.762;2022-09-09T15:13:53;20.40;99.90
8557;DHT22;4316;53.840;10.762;2022-09-09T15:16:20;20.00;99.90
8557;DHT22;4316;53.840;10.762;2022-09-09T15:18:52;20.20;99.90
8557;DHT22;4316;53.840;10.762;2022-09-09T15:21:22;20.20;99.90
8557;DHT22;4316;53.840;10.762;2022-09-09T15:23:48;20.20;99.90
8557;DHT22;4316;53.840;10.762;2022-09-09T15:26:15;20.10;99.90
8557;DHT22;4316;53.840;10.762;2022-09-09T15:28:41;20.10;99.90
8557;DHT22;4316;53.840;10.762;2022-09-09T15:31:17;20.10;99.90
8557;DHT22;4316;53.840;10.762;2022-09-09T15:33:49;20.10;99.90
8557;DHT22;4316;53.840;10.762;2022-09-09T15:36:25;20.10;99.90
8557;DHT22;4316;53.840;10.762;2022-09-09T15:38:52;19.70;99.90
8557;DHT22;4316;53.840;10.762;2022-09-09T15:41:19;19.40;99.90
8557;DHT22;4316;53.840;10.762;2022-09-09T15:43:54;19.60;99.90
8557;DHT22;4316;53.840;10.762;2022-09-09T15:46:31;19.60;99.90
8557;DHT22;4316;53.840;10.762;2022-09-09T15:49:03;19.90;99.90
8557;DHT22;4316;53.840;10.762;2022-09-09T15:51:28;19.80;99.90
8557;DHT22;4316;53.840;10.762;2022-09-09T15:53:55;19.80;99.90
8557;DHT22;4316;53.840;10.762;2022-09-09T15:56:22;19.80;99.90
8557;DHT22;4316;53.840;10.762;2022-09-09T15:58:48;19.90;99.90
8557;DHT22;4316;53.840;10.762;2022-09-09T16:01:14;19.90;99.90
8557;DHT22;4316;53.840;10.762;2022-09-09T16:03:41;19.80;99.90
8557;DHT22;4316;53.840;10.762;2022-09-09T16:06:08;19.90;99.90
8557;DHT22;4316;53.840;10.762;2022-09-09T16:08:35;20.00;99.90
8557;DHT22;4316;53.840;10.762;2022-09-09T16:11:10;19.90;99.90
8557;DHT22;4316;53.840;10.762;2022-09-09T16:13:36;19.90;99.90
8557;DHT22;4316;53.840;10.762;2022-09-09T16:16:03;19.80;99.90
8557;DHT22;4316;53.840;10.762;2022-09-09T16:18:35;19.90;99.90
8557;DHT22;4316;53.840;10.762;2022-09-09T16:21:01;20.00;99.90
8557;DHT22;4316;53.840;10.762;2022-09-09T16:23:27;20.10;99.90
8557;DHT22;4316;53.840;10.762;2022-09-09T16:25:56;20.10;99.90
8557;DHT22;4316;53.840;10.762;2022-09-09T16:28:21;20.20;99.90
8557;DHT22;4316;53.840;10.762;2022-09-09T16:30:48;20.30;99.90
8557;DHT22;4316;53.840;10.762;2022-09-09T16:33:13;20.40;99.90
8557;DHT22;4316;53.840;10.762;2022-09-09T16:35:42;20.40;99.90
8557;DHT22;4316;53.840;10.762;2022-09-09T16:38:08;20.40;99.90
8557;DHT22;4316;53.840;10.762;2022-09-09T16:40:34;20.40;99.90
8557;DHT22;4316;53.840;10.762;2022-09-09T16:43:00;20.40;99.90
8557;DHT22;4316;53.840;10.762;2022-09-09T16:45:26;20.50;99.90
8557;DHT22;4316;53.840;10.762;2022-09-09T16:47:52;20.40;99.90
8557;DHT22;4316;53.840;10.762;2022-09-09T16:50:18;20.40;99.90
8557;DHT22;4316;53.840;10.762;2022-09-09T16:52:44;20.40;99.90
8557;DHT22;4316;53.840;10.762;2022-09-09T16:55:09;20.30;99.90
8557;DHT22;4316;53.840;10.762;2022-09-09T16:57:35;20.20;99.90
8557;DHT22;4316;53.840;10.762;2022-09-09T17:00:01;20.10;99.90
8557;DHT22;4316;53.840;10.762;2022-09-09T17:02:29;20.00;99.90
8557;DHT22;4316;53.840;10.762;2022-09-09T17:04:54;20.00;99.90
8557;DHT22;4316;53.840;10.762;2022-09-09T17:07:20;20.10;99.90
8557;DHT22;4316;53.840;10.762;2022-09-09T17:09:46;20.10;99.90
8557;DHT22;4316;53.840;10.762;2022-09-09T17:12:11;20.00;99.90
8557;DHT22;4316;53.840;10.762;2022-09-09T17:14:37;20.00;99.90
8557;DHT22;4316;53.840;10.762;2022-09-09T17:17:04;20.00;99.90
8557;DHT22;4316;53.840;10.762;2022-09-09T17:19:30;20.00;99.90
8557;DHT22;4316;53.840;10.762;2022-09-09T17:21:56;20.00;99.90
8557;DHT22;4316;53.840;10.762;2022-09-09T17:24:26;20.00;99.90
8557;DHT22;4316;53.840;10.762;2022-09-09T17:26:52;20.00;99.90
8557;DHT22;4316;53.840;10.762;2022-09-09T17:29:18;19.90;99.90
8557;DHT22;4316;53.840;10.762;2022-09-09T17:31:44;19.90;99.90
8557;DHT22;4316;53.840;10.762;2022-09-09T17:34:10;19.80;99.90
8557;DHT22;4316;53.840;10.762;2022-09-09T17:36:35;19.80;99.90
8557;DHT22;4316;53.840;10.762;2022-09-09T17:39:03;19.80;99.90
8557;DHT22;4316;53.840;10.762;2022-09-09T17:41:34;19.80;99.90
8557;DHT22;4316;53.840;10.762;2022-09-09T17:44:05;19.70;99.90
8557;DHT22;4316;53.840;10.762;2022-09-09T17:46:34;19.60;99.90
8557;DHT22;4316;53.840;10.762;2022-09-09T17:49:05;19.60;99.90
8557;DHT22;4316;53.840;10.762;2022-09-09T17:51:32;19.60;99.90
8557;DHT22;4316;53.840;10.762;2022-09-09T17:54:01;19.60;99.90